NVVVAGGH

Guest
Details From NVVV - Bauerfield
To AGGH - HONIARA INTL
Flight Number -
Tags generated
Created
Modified
Stats Distance 692 nm / 1,282 km
Max Altitude 34,000 ft / 10,363 m
Waypoints 5
Social Downloads 10
Likes 0
Share

Download

Looking for another format? Having issues loading an existing format? Contact us
Advertisement - Login to hide

Notes

Basic altitude profile: - Ascent Rate: 2500ft/min - Ascent Speed: 250kts - Cruise Altitude: 35000ft - Cruise Speed: 420kts - Descent Rate: 1500ft/min - Descent Speed: 250kts Options: - Use NATs: yes - Use PACOTS: yes - Use low airways: yes - Use high airways: yes

Route

NVVV VLI B598 ILEWA AGGH

ID Type Via Altitude (ft/m) Position (lat/lon) Dist (leg/tot) Name
O NVVV APT - 0 / 0 -17.69818 / 168.31754 - / 0 nm Bauerfield
VLI VOR - 1,600 / 488 -17.66222 / 168.24389 4 / 4 nm BAUERFIELD VOR-DME
NIPER FIX B598 (AWY-LO) 34,000 / 10,363 -13.45833 / 163.95500 353 / 358 nm
ILEWA FIX B598 (AWY-HI) 12,700 / 3,871 -10.17000 / 160.71833 274 / 632 nm
O AGGH APT - 0 / 0 -9.42826 / 160.05453 59 / 692 nm HONIARA INTL

Altitude Profile

Advertisement - Login to hide

Weather


0- 5 10 15 20 25 30 35+ Temperature / °C

Clouds and Precipitation
Forecast for 2024-04-15 18:00 UTC. Updated 2 months ago

Ground ~20,000 ft ~40,000 ft Winds

NVVV

Details ICAO NVVV (VLI)
Name Bauerfield Airport
Region Vanuatu
Timezone Pacific/Efate (UTC+11.0)
Stats Elevation 69 ft / 21 m (AMSL)
Location -17.698200° 168.318000°
Runways 1
Magnetic Variation 11.749° E

METAR

Not found

TAF

TAF NVVV 211700Z 2118/2218 11012KT 9999 SCT020 BKN040 PROB40 INTER 2118/2121 8000 SHRA SCT010 BKN018 OVC038

Decode

Departure Runways

ID Width Length Bearing (true/mag) Surface Threshold Overrun Markings Lighting
11 148 ft / 45 m 8,538 ft / 2,602 m 118.01° / 106.26° ASPHALT 0 ft / 0 m 197 ft / 60 m PREC-APP CENTERLINE EDGE THRESHOLD MALS TDZ REIL-OMNI
29 148 ft / 45 m 8,538 ft / 2,602 m 298.01° / 286.26° ASPHALT 0 ft / 0 m 197 ft / 60 m PREC-APP CENTERLINE EDGE THRESHOLD MALS TDZ REIL-OMNI

AGGH

Details ICAO AGGH (HIR)
Name HONIARA INTL
Region Solomon Islands
Timezone Pacific/Guadalcanal (UTC+11.0)
Stats Elevation 27 ft / 8 m (AMSL)
Location -9.428240° 160.054000°
Runways 1
Magnetic Variation 8.718° E

METAR

AGGH 211800Z 00000KT 9999 FEW014 FEW015CB 24/23 Q1010

Decode

TAF

TAF TAF AGGH 211225Z 2112/2212 14008KT 9999 FEW018 T 26 25 24 23 Q 1011 1009 1008 1010 0000045700 79899

Decode

Destination Runways

ID Width Length Bearing (true/mag) Surface Threshold Overrun Markings Lighting
06 148 ft / 45 m 7,232 ft / 2,204 m 67.90° / 59.18° ASPHALT 0 ft / 0 m 0 ft / 0 m APP EDGE THRESHOLD
24 148 ft / 45 m 7,232 ft / 2,204 m 247.90° / 239.18° ASPHALT 0 ft / 0 m 0 ft / 0 m APP EDGE THRESHOLD

Popular Alternatives